Time;durP1;ratioP1;P1;durP2;ratioP2;P2;SDS_P1;SDS_P2;PMS_P1;PMS_P2;Temp;Humidity;BMP_temperature;BMP_pressure;BME280_temperature;BME280_humidity;BME280_pressure;Samples;Min_cycle;Max_cycle;Signal;HPM_P1;HPM_P2
2021/10/19 00:00:06;;;;;;;10.17;6.60;;;9.80;99.90;;;;;;5069110;28;20231;-67
2021/10/19 00:02:32;;;;;;;9.83;6.73;;;9.80;99.90;;;;;;5063276;28;20210;-68
2021/10/19 00:04:59;;;;;;;7.97;5.90;;;9.80;99.90;;;;;;5069255;28;20204;-67
2021/10/19 00:07:26;;;;;;;6.87;5.23;;;9.80;99.90;;;;;;5062796;28;20206;-67
2021/10/19 00:09:53;;;;;;;5.03;4.53;;;9.70;99.90;;;;;;5070278;28;20307;-67
2021/10/19 00:12:20;;;;;;;9.30;5.03;;;9.70;99.90;;;;;;5057882;28;20209;-68
2021/10/19 00:14:48;;;;;;;5.93;4.80;;;9.60;99.90;;;;;;5066824;28;20554;-67
2021/10/19 00:17:15;;;;;;;8.93;5.27;;;9.50;99.90;;;;;;5053079;28;20206;-66
2021/10/19 00:19:42;;;;;;;8.53;5.07;;;9.50;99.90;;;;;;5053229;28;20710;-68
2021/10/19 00:22:10;;;;;;;8.10;5.80;;;9.50;99.90;;;;;;5058336;28;20206;-68
2021/10/19 00:24:37;;;;;;;6.27;5.37;;;9.50;99.90;;;;;;5068019;28;20206;-68
2021/10/19 00:27:05;;;;;;;7.27;5.73;;;9.50;99.90;;;;;;5071350;28;20292;-66
2021/10/19 00:29:33;;;;;;;7.70;5.20;;;9.50;99.90;;;;;;5066269;28;20291;-67
2021/10/19 00:32:01;;;;;;;6.73;5.90;;;9.50;99.90;;;;;;5062325;28;20237;-68
2021/10/19 00:34:29;;;;;;;7.27;5.50;;;9.50;99.90;;;;;;5066269;28;20692;-68
2021/10/19 00:36:56;;;;;;;8.80;6.10;;;9.50;99.90;;;;;;5058529;28;20226;-68
2021/10/19 00:39:23;;;;;;;7.30;5.57;;;9.50;99.90;;;;;;5065940;28;20224;-68
2021/10/19 00:41:50;;;;;;;7.67;5.77;;;9.40;99.90;;;;;;5067463;28;20310;-67
2021/10/19 00:44:17;;;;;;;9.80;5.50;;;9.50;99.90;;;;;;5052654;28;20646;-68
2021/10/19 00:46:44;;;;;;;6.53;5.57;;;9.40;99.90;;;;;;5065606;28;20209;-68
2021/10/19 00:49:12;;;;;;;9.40;5.77;;;9.40;99.90;;;;;;5072671;28;20255;-68
2021/10/19 00:51:39;;;;;;;8.73;6.27;;;9.40;99.90;;;;;;5063653;28;20202;-67
2021/10/19 00:54:06;;;;;;;9.57;6.40;;;9.40;99.90;;;;;;5066723;28;20201;-68
2021/10/19 00:56:36;;;;;;;7.70;6.10;;;9.40;99.90;;;;;;5057919;28;20658;-68
2021/10/19 00:59:03;;;;;;;7.83;5.97;;;9.40;99.90;;;;;;5072391;28;20255;-69
2021/10/19 01:01:30;;;;;;;7.57;5.90;;;9.30;99.90;;;;;;5066991;28;20648;-68
2021/10/19 01:03:57;;;;;;;8.53;6.07;;;9.40;99.90;;;;;;5063214;28;20282;-69
2021/10/19 01:06:25;;;;;;;8.30;6.23;;;9.30;99.90;;;;;;5066923;28;20212;-67
2021/10/19 01:08:52;;;;;;;10.67;6.50;;;9.30;99.90;;;;;;5064402;28;20218;-69
2021/10/19 01:11:19;;;;;;;11.13;6.90;;;9.30;99.90;;;;;;5061822;28;20248;-67
2021/10/19 01:13:46;;;;;;;17.83;7.00;;;9.30;99.90;;;;;;5065245;28;20214;-68
2021/10/19 01:16:13;;;;;;;8.37;6.20;;;9.30;99.90;;;;;;5067308;28;20211;-67
2021/10/19 01:18:41;;;;;;;9.23;6.57;;;9.30;99.90;;;;;;5057108;28;20650;-67
2021/10/19 01:21:09;;;;;;;7.53;5.93;;;9.30;99.90;;;;;;5068001;28;20228;-68
2021/10/19 01:23:37;;;;;;;8.10;6.43;;;9.30;99.90;;;;;;5069914;28;20205;-68
2021/10/19 01:26:07;;;;;;;7.77;6.13;;;9.30;99.90;;;;;;5071736;28;20205;-68
2021/10/19 01:28:35;;;;;;;8.77;6.60;;;9.30;99.90;;;;;;5057570;28;20252;-67
2021/10/19 01:31:02;;;;;;;10.07;6.77;;;9.30;99.90;;;;;;5064768;28;20698;-67
2021/10/19 01:33:30;;;;;;;8.30;6.57;;;9.30;99.90;;;;;;5057960;28;20213;-68
2021/10/19 01:35:57;;;;;;;10.13;6.70;;;9.20;99.90;;;;;;5065398;28;20225;-67
2021/10/19 01:38:27;;;;;;;9.57;6.90;;;9.30;99.90;;;;;;5065048;28;20220;-69
2021/10/19 01:40:55;;;;;;;8.33;6.20;;;9.30;99.90;;;;;;5056872;28;20220;-68
2021/10/19 01:43:25;;;;;;;9.70;6.50;;;9.30;99.90;;;;;;5064268;28;20565;-68
2021/10/19 01:45:54;;;;;;;8.93;6.10;;;9.30;99.90;;;;;;5059323;28;20211;-68
2021/10/19 01:48:21;;;;;;;11.40;6.87;;;9.30;99.90;;;;;;5072048;28;20215;-67
2021/10/19 01:50:48;;;;;;;10.47;6.93;;;9.40;99.90;;;;;;5068452;28;20235;-67
2021/10/19 01:53:15;;;;;;;8.47;6.40;;;9.40;99.90;;;;;;5057722;28;20197;-68
2021/10/19 01:55:44;;;;;;;10.17;6.60;;;9.30;99.90;;;;;;5071125;28;20619;-67
2021/10/19 01:58:11;;;;;;;9.77;6.77;;;9.30;99.90;;;;;;5071826;28;20212;-68
2021/10/19 02:00:40;;;;;;;7.67;5.60;;;9.30;99.90;;;;;;5061078;28;20217;-69
2021/10/19 02:03:08;;;;;;;5.83;5.17;;;9.30;99.90;;;;;;5064354;28;20229;-68
2021/10/19 02:05:35;;;;;;;6.17;4.90;;;9.20;99.90;;;;;;5062771;28;20205;-68
2021/10/19 02:08:03;;;;;;;5.27;4.30;;;9.20;99.90;;;;;;5072051;28;20205;-68
2021/10/19 02:10:31;;;;;;;5.80;4.30;;;9.20;99.90;;;;;;5070473;28;20213;-68
2021/10/19 02:12:59;;;;;;;6.27;4.50;;;9.20;99.90;;;;;;5068065;28;20646;-68
2021/10/19 02:15:27;;;;;;;7.00;5.10;;;9.20;99.90;;;;;;5063562;28;20237;-68
2021/10/19 02:17:54;;;;;;;6.00;4.80;;;9.20;99.90;;;;;;5052364;28;20251;-68
2021/10/19 02:20:21;;;;;;;7.83;5.07;;;9.10;99.90;;;;;;5060835;28;20217;-69
2021/10/19 02:22:48;;;;;;;6.83;4.80;;;9.10;99.90;;;;;;5063975;28;20655;-67
2021/10/19 02:25:15;;;;;;;6.30;4.70;;;9.10;99.90;;;;;;5058965;28;20210;-68
2021/10/19 02:27:43;;;;;;;7.50;4.07;;;9.10;99.90;;;;;;5055704;28;20292;-68
2021/10/19 02:30:13;;;;;;;6.83;4.50;;;9.10;99.90;;;;;;5055352;28;20230;-69
2021/10/19 02:32:40;;;;;;;8.07;5.13;;;9.10;99.90;;;;;;5063672;28;20234;-68
2021/10/19 02:35:08;;;;;;;8.10;4.67;;;9.10;99.90;;;;;;5068319;28;20280;-69
2021/10/19 02:37:35;;;;;;;7.87;4.93;;;9.10;99.90;;;;;;5074363;28;20698;-67
2021/10/19 02:40:02;;;;;;;6.47;4.90;;;9.10;99.90;;;;;;5055181;28;20221;-68
2021/10/19 02:42:29;;;;;;;6.00;5.10;;;9.00;99.90;;;;;;5060958;28;20209;-68
2021/10/19 02:44:56;;;;;;;7.00;4.70;;;9.00;99.90;;;;;;5074813;28;20202;-68
2021/10/19 02:47:24;;;;;;;9.17;5.63;;;9.00;99.90;;;;;;5073371;28;20547;-67
2021/10/19 02:49:51;;;;;;;7.67;4.97;;;9.00;99.90;;;;;;5065459;28;20219;-68
2021/10/19 02:52:18;;;;;;;6.93;5.07;;;9.00;99.90;;;;;;5063228;28;20236;-67
2021/10/19 02:54:45;;;;;;;7.73;5.63;;;9.00;99.90;;;;;;5069637;28;20213;-68
2021/10/19 02:57:12;;;;;;;9.27;5.77;;;9.00;99.90;;;;;;5067849;28;20588;-68
2021/10/19 02:59:39;;;;;;;7.10;5.10;;;9.00;99.90;;;;;;5057824;28;20228;-67
2021/10/19 03:02:05;;;;;;;8.17;4.90;;;8.90;99.90;;;;;;5055515;28;20308;-68
2021/10/19 03:04:34;;;;;;;7.80;5.60;;;8.90;99.90;;;;;;5067648;28;20288;-67
2021/10/19 03:07:00;;;;;;;9.77;5.57;;;8.90;99.90;;;;;;5066436;28;20219;-68
2021/10/19 03:09:27;;;;;;;6.67;5.37;;;8.90;99.90;;;;;;5074962;28;20212;-67
2021/10/19 03:11:54;;;;;;;10.30;6.47;;;8.80;99.90;;;;;;5060569;28;20211;-67
2021/10/19 03:14:21;;;;;;;9.70;5.77;;;8.80;99.90;;;;;;5073088;28;20213;-66
2021/10/19 03:16:48;;;;;;;10.33;6.07;;;8.80;99.90;;;;;;5061404;28;20197;-67
2021/10/19 03:19:15;;;;;;;9.33;5.80;;;8.90;99.90;;;;;;5074167;28;20579;-67
2021/10/19 03:21:43;;;;;;;9.33;6.07;;;8.90;99.90;;;;;;5058093;28;20578;-68
2021/10/19 03:24:10;;;;;;;9.97;5.87;;;8.90;99.90;;;;;;5063232;28;20288;-67
2021/10/19 03:26:37;;;;;;;13.73;8.63;;;8.90;99.90;;;;;;5062543;28;20213;-67
2021/10/19 03:29:03;;;;;;;9.97;6.50;;;9.00;99.90;;;;;;5054555;28;20198;-67
2021/10/19 03:31:35;;;;;;;9.47;6.80;;;9.00;99.90;;;;;;5067936;28;20205;-68
2021/10/19 03:34:01;;;;;;;9.67;6.30;;;9.00;99.90;;;;;;5060486;28;20197;-67
2021/10/19 03:36:28;;;;;;;10.67;6.70;;;9.00;99.90;;;;;;5056181;28;20230;-67
2021/10/19 03:38:56;;;;;;;10.63;7.03;;;9.00;99.90;;;;;;5054260;28;20217;-68
2021/10/19 03:41:23;;;;;;;13.50;7.20;;;9.10;99.90;;;;;;5065548;28;20237;-68
2021/10/19 03:43:50;;;;;;;14.43;7.63;;;9.00;99.90;;;;;;5059999;28;20599;-67
2021/10/19 03:46:17;;;;;;;10.87;7.40;;;9.00;99.90;;;;;;5065242;28;20213;-67
2021/10/19 03:48:44;;;;;;;13.33;9.17;;;9.00;99.90;;;;;;5073868;28;20205;-67
2021/10/19 03:51:11;;;;;;;15.43;9.57;;;9.10;99.90;;;;;;5066939;28;20202;-68
2021/10/19 03:53:38;;;;;;;13.63;9.00;;;9.00;99.90;;;;;;5057365;28;20552;-69
2021/10/19 03:56:06;;;;;;;12.03;8.27;;;8.90;99.90;;;;;;5060502;28;20205;-67
2021/10/19 03:58:34;;;;;;;10.77;8.03;;;9.00;99.90;;;;;;5065015;28;20670;-68
2021/10/19 04:01:01;;;;;;;13.53;7.33;;;8.90;99.90;;;;;;5065737;28;20708;-67
2021/10/19 04:03:27;;;;;;;19.57;7.37;;;8.90;99.90;;;;;;5060031;28;20205;-67
2021/10/19 04:05:55;;;;;;;10.17;6.70;;;8.90;99.90;;;;;;5059939;28;20202;-68
2021/10/19 04:08:22;;;;;;;11.53;7.47;;;8.90;99.90;;;;;;5067247;28;20252;-68
2021/10/19 04:10:49;;;;;;;11.63;7.73;;;8.90;99.90;;;;;;5053925;28;20699;-67
2021/10/19 04:13:17;;;;;;;10.83;6.70;;;9.00;99.90;;;;;;5065301;28;20229;-67
2021/10/19 04:15:44;;;;;;;11.97;8.03;;;9.00;99.90;;;;;;5061471;28;20675;-67
2021/10/19 04:18:11;;;;;;;9.77;7.80;;;9.00;99.90;;;;;;5068393;28;20209;-68
2021/10/19 04:20:38;;;;;;;12.33;8.17;;;9.00;99.90;;;;;;5066825;28;20302;-67
2021/10/19 04:23:05;;;;;;;12.23;8.00;;;9.00;99.90;;;;;;5073067;28;20201;-69
2021/10/19 04:25:31;;;;;;;8.80;7.10;;;9.00;99.90;;;;;;5063413;28;20206;-67
2021/10/19 04:27:58;;;;;;;10.07;6.13;;;9.10;99.90;;;;;;5065283;28;20715;-68
2021/10/19 04:30:26;;;;;;;10.07;6.53;;;9.10;99.90;;;;;;5058952;28;20764;-68
2021/10/19 04:32:53;;;;;;;9.57;6.47;;;9.00;99.90;;;;;;5072539;28;20205;-68
2021/10/19 04:35:20;;;;;;;9.33;6.23;;;9.00;99.90;;;;;;5067630;28;20202;-68
2021/10/19 04:37:47;;;;;;;7.63;5.53;;;9.00;99.90;;;;;;5071279;28;20217;-66
2021/10/19 04:40:14;;;;;;;9.33;6.33;;;9.00;99.90;;;;;;5066511;28;20233;-67
2021/10/19 04:42:40;;;;;;;9.13;6.47;;;9.00;99.90;;;;;;5072891;28;20205;-67
2021/10/19 04:45:09;;;;;;;8.13;5.77;;;8.90;99.90;;;;;;5066902;28;20216;-69
2021/10/19 04:47:37;;;;;;;7.77;5.43;;;9.00;99.90;;;;;;5058924;28;20607;-68
2021/10/19 04:50:05;;;;;;;7.37;6.20;;;9.00;99.90;;;;;;5060499;28;20206;-67
2021/10/19 04:52:32;;;;;;;12.40;6.47;;;8.90;99.90;;;;;;5056112;28;20206;-68
2021/10/19 04:54:59;;;;;;;8.13;6.33;;;8.90;99.90;;;;;;5063311;28;20214;-68
2021/10/19 04:57:25;;;;;;;10.20;6.37;;;8.90;99.90;;;;;;5052107;28;20296;-67
2021/10/19 04:59:52;;;;;;;10.00;6.63;;;8.90;99.90;;;;;;5054684;28;20214;-69
2021/10/19 05:02:19;;;;;;;10.43;6.00;;;8.90;99.90;;;;;;5053961;28;20232;-67
2021/10/19 05:04:47;;;;;;;10.80;6.30;;;8.90;99.90;;;;;;5055305;28;20684;-73
2021/10/19 05:07:14;;;;;;;6.93;6.10;;;9.00;99.90;;;;;;5057836;28;20217;-72
2021/10/19 05:09:42;;;;;;;7.83;5.87;;;9.00;99.90;;;;;;5055548;28;20317;-71
2021/10/19 05:12:09;;;;;;;10.37;6.73;;;9.00;99.90;;;;;;5052954;28;20194;-72
2021/10/19 05:14:36;;;;;;;11.73;6.73;;;9.00;99.90;;;;;;5055013;28;20228;-74
2021/10/19 05:17:03;;;;;;;10.27;7.40;;;9.00;99.90;;;;;;5052682;28;20569;-71
2021/10/19 05:19:30;;;;;;;13.37;6.63;;;9.00;99.90;;;;;;5060938;28;20220;-72
2021/10/19 05:21:58;;;;;;;9.33;7.07;;;8.90;99.90;;;;;;5058904;28;20770;-73
2021/10/19 05:24:25;;;;;;;10.77;7.10;;;9.00;99.90;;;;;;5053375;28;20933;-72
2021/10/19 05:26:52;;;;;;;12.57;7.77;;;9.00;99.90;;;;;;5059104;28;20213;-71
2021/10/19 05:29:19;;;;;;;10.27;7.40;;;8.90;99.90;;;;;;5059316;28;20239;-72
2021/10/19 05:31:46;;;;;;;11.23;7.43;;;8.90;99.90;;;;;;5053038;28;20202;-72
2021/10/19 05:34:12;;;;;;;11.00;7.50;;;8.90;99.90;;;;;;5059599;28;20230;-72
2021/10/19 05:36:39;;;;;;;11.73;8.27;;;8.90;99.90;;;;;;5053576;28;20240;-71
2021/10/19 05:39:07;;;;;;;11.67;7.57;;;9.00;99.90;;;;;;5051917;28;20646;-72
2021/10/19 05:41:34;;;;;;;13.00;8.77;;;9.00;99.90;;;;;;5051718;28;20224;-71
2021/10/19 05:44:01;;;;;;;12.70;8.50;;;9.00;99.90;;;;;;5058910;28;20202;-71
2021/10/19 05:46:28;;;;;;;11.83;8.10;;;9.00;99.90;;;;;;5055642;28;20205;-70
2021/10/19 05:48:56;;;;;;;11.87;7.53;;;9.00;99.90;;;;;;5055156;28;20207;-69
2021/10/19 05:51:23;;;;;;;10.33;8.03;;;9.00;99.90;;;;;;5057013;28;20201;-69
2021/10/19 05:53:50;;;;;;;10.60;8.17;;;9.00;99.90;;;;;;5071458;28;20209;-71
2021/10/19 05:56:18;;;;;;;11.37;8.20;;;9.00;99.90;;;;;;5071406;28;20205;-70
2021/10/19 05:58:45;;;;;;;11.53;8.20;;;9.10;99.90;;;;;;5073341;28;20209;-73
2021/10/19 06:01:12;;;;;;;8.90;7.43;;;9.10;99.90;;;;;;5057988;28;20763;-71
2021/10/19 06:03:39;;;;;;;11.83;8.40;;;9.10;99.90;;;;;;5069918;28;20207;-70
2021/10/19 06:06:08;;;;;;;10.70;8.27;;;9.20;99.90;;;;;;5063603;28;20631;-70
2021/10/19 06:08:36;;;;;;;10.60;7.63;;;9.20;99.90;;;;;;5057835;28;20215;-71
2021/10/19 06:11:03;;;;;;;11.27;7.27;;;9.20;99.90;;;;;;5071602;28;20662;-70
2021/10/19 06:13:32;;;;;;;14.50;7.90;;;9.20;99.90;;;;;;5056222;28;20209;-70
2021/10/19 06:15:59;;;;;;;11.63;8.07;;;9.10;99.90;;;;;;5058841;28;20264;-70
2021/10/19 06:18:26;;;;;;;11.37;8.80;;;9.20;99.90;;;;;;5066476;28;20241;-70
2021/10/19 06:20:53;;;;;;;10.43;7.60;;;9.20;99.90;;;;;;5054202;28;20257;-70
2021/10/19 06:23:20;;;;;;;9.83;7.80;;;9.20;99.90;;;;;;5066876;28;20272;-70
2021/10/19 06:25:48;;;;;;;12.27;8.57;;;9.20;99.90;;;;;;5061869;28;20914;-70
2021/10/19 06:28:14;;;;;;;9.33;7.33;;;9.20;99.90;;;;;;5062440;28;20212;-70
2021/10/19 06:30:43;;;;;;;12.20;8.33;;;9.10;99.90;;;;;;5057708;28;20243;-69
2021/10/19 06:33:09;;;;;;;12.73;8.60;;;9.10;99.90;;;;;;5059641;28;20208;-68
2021/10/19 06:35:36;;;;;;;13.33;8.47;;;9.20;99.90;;;;;;5062705;28;20210;-69
2021/10/19 06:38:04;;;;;;;11.23;8.60;;;9.20;99.90;;;;;;5055452;28;20690;-69
2021/10/19 06:40:31;;;;;;;10.13;8.07;;;9.20;99.90;;;;;;5062110;28;20661;-70
2021/10/19 06:42:58;;;;;;;12.13;8.63;;;9.20;99.90;;;;;;5059885;28;20245;-70
2021/10/19 06:45:26;;;;;;;11.63;8.77;;;9.40;99.90;;;;;;5055315;28;20272;-69
2021/10/19 06:47:54;;;;;;;14.23;8.57;;;9.20;99.90;;;;;;5054195;28;20781;-70
2021/10/19 06:50:21;;;;;;;13.40;9.20;;;9.30;99.90;;;;;;5055108;28;20198;-70
2021/10/19 06:52:48;;;;;;;11.03;8.67;;;9.30;99.90;;;;;;5060928;28;20242;-68
2021/10/19 06:55:15;;;;;;;10.53;8.23;;;9.30;99.90;;;;;;5068339;28;20202;-70
2021/10/19 06:57:44;;;;;;;11.33;8.30;;;9.30;99.90;;;;;;5067179;28;20205;-68
2021/10/19 07:00:13;;;;;;;12.07;8.67;;;9.40;99.90;;;;;;5055872;28;20236;-69
2021/10/19 07:02:40;;;;;;;17.57;8.43;;;9.40;99.90;;;;;;5070312;28;20294;-68
2021/10/19 07:05:09;;;;;;;10.83;8.67;;;9.40;99.90;;;;;;5073962;28;20205;-67
2021/10/19 07:07:36;;;;;;;12.47;8.70;;;9.40;99.90;;;;;;5062626;28;20220;-68
2021/10/19 07:10:04;;;;;;;10.97;8.63;;;9.40;99.90;;;;;;5070666;28;20646;-69
2021/10/19 07:12:31;;;;;;;11.97;8.67;;;9.50;99.90;;;;;;5067657;28;20213;-69
2021/10/19 07:14:58;;;;;;;12.33;8.67;;;9.50;99.90;;;;;;5058686;28;20213;-69
2021/10/19 07:17:25;;;;;;;14.80;9.30;;;9.50;99.90;;;;;;5053869;28;20210;-71
2021/10/19 07:19:52;;;;;;;15.27;9.67;;;9.50;99.90;;;;;;5056625;28;20403;-68
2021/10/19 07:22:20;;;;;;;14.63;9.83;;;9.50;99.90;;;;;;5053564;28;20304;-69
2021/10/19 07:24:48;;;;;;;16.67;10.87;;;9.50;99.90;;;;;;5057898;28;20210;-69
2021/10/19 07:27:15;;;;;;;17.13;10.10;;;9.50;99.90;;;;;;5061907;28;20202;-69
2021/10/19 07:29:44;;;;;;;14.83;10.03;;;9.50;99.90;;;;;;5060158;28;20249;-70
2021/10/19 07:32:11;;;;;;;17.23;9.93;;;9.60;99.90;;;;;;5063043;28;20204;-69
2021/10/19 07:34:38;;;;;;;16.97;10.90;;;9.60;99.90;;;;;;5054602;28;20210;-70
2021/10/19 07:37:05;;;;;;;16.43;10.70;;;9.50;99.90;;;;;;5055297;28;20218;-70
2021/10/19 07:39:33;;;;;;;18.57;11.40;;;9.50;99.90;;;;;;5059442;28;20206;-70
2021/10/19 07:42:00;;;;;;;15.87;11.30;;;9.60;99.90;;;;;;5052980;28;20265;-70
2021/10/19 07:44:29;;;;;;;19.83;12.07;;;9.60;99.90;;;;;;5058367;28;20245;-70
2021/10/19 07:46:56;;;;;;;16.43;11.57;;;9.60;99.90;;;;;;5068743;28;20259;-70
2021/10/19 07:49:23;;;;;;;23.80;12.53;;;9.70;99.90;;;;;;5059345;28;20298;-70
2021/10/19 07:51:50;;;;;;;19.73;12.30;;;9.70;99.90;;;;;;5058646;28;20374;-68
2021/10/19 07:54:17;;;;;;;21.40;13.23;;;9.70;99.90;;;;;;5058378;28;20315;-70
2021/10/19 07:56:46;;;;;;;23.33;13.23;;;9.70;99.90;;;;;;5067611;28;20198;-70
2021/10/19 07:59:13;;;;;;;18.53;12.90;;;9.80;99.90;;;;;;5055532;28;20198;-70
2021/10/19 08:01:41;;;;;;;20.13;12.70;;;9.80;99.90;;;;;;5054756;28;20608;-69
2021/10/19 08:04:09;;;;;;;24.13;13.33;;;9.90;99.90;;;;;;5055633;28;20570;-71
2021/10/19 08:06:37;;;;;;;23.43;14.00;;;9.90;99.90;;;;;;5056536;28;20604;-69
2021/10/19 08:09:04;;;;;;;19.27;13.00;;;9.90;99.90;;;;;;5055927;28;20297;-70
2021/10/19 08:11:33;;;;;;;18.00;13.00;;;10.00;99.90;;;;;;5059902;28;20212;-69
2021/10/19 08:14:01;;;;;;;24.20;13.40;;;10.00;99.90;;;;;;5053493;28;20209;-72
2021/10/19 08:16:28;;;;;;;18.67;12.10;;;10.00;99.90;;;;;;5053327;28;21559;-70
2021/10/19 08:18:55;;;;;;;25.60;16.07;;;10.10;99.90;;;;;;5053571;28;20719;-70
2021/10/19 08:21:22;;;;;;;21.70;14.33;;;10.20;99.90;;;;;;5054239;28;20213;-70
2021/10/19 08:23:49;;;;;;;25.07;13.50;;;10.30;99.90;;;;;;5055540;28;20213;-70
2021/10/19 08:26:16;;;;;;;21.83;14.57;;;10.40;99.90;;;;;;5052530;28;20610;-70
2021/10/19 08:28:44;;;;;;;24.17;15.03;;;10.50;99.90;;;;;;5055784;28;20293;-69
2021/10/19 08:31:15;;;;;;;19.77;14.50;;;10.50;99.90;;;;;;5054385;28;20683;-69
2021/10/19 08:33:43;;;;;;;22.47;14.60;;;10.60;99.90;;;;;;5054890;28;20676;-70
2021/10/19 08:36:11;;;;;;;27.60;15.73;;;10.60;99.90;;;;;;5055479;28;20312;-70
2021/10/19 08:38:39;;;;;;;21.43;14.90;;;10.70;99.90;;;;;;5057413;28;20236;-69
2021/10/19 08:41:06;;;;;;;21.70;14.97;;;10.80;99.90;;;;;;5056759;28;20215;-70
2021/10/19 08:43:33;;;;;;;23.93;15.10;;;10.80;99.90;;;;;;5054379;28;20225;-70
2021/10/19 08:46:01;;;;;;;24.03;15.17;;;10.90;99.90;;;;;;5054960;28;20301;-69
2021/10/19 08:48:29;;;;;;;20.93;14.03;;;11.00;99.90;;;;;;5052200;28;20297;-70
2021/10/19 08:50:58;;;;;;;22.80;14.63;;;11.10;99.90;;;;;;5058572;28;20234;-70
2021/10/19 08:53:25;;;;;;;23.13;15.77;;;11.10;99.90;;;;;;5059750;28;20197;-70
2021/10/19 08:55:52;;;;;;;21.47;14.67;;;11.10;99.90;;;;;;5071575;28;20304;-70
2021/10/19 08:58:19;;;;;;;24.23;14.87;;;11.20;99.90;;;;;;5064662;28;20384;-71
2021/10/19 09:00:46;;;;;;;22.03;14.57;;;11.30;99.90;;;;;;5054366;28;20243;-70
2021/10/19 09:03:13;;;;;;;22.13;15.47;;;11.40;99.90;;;;;;5071876;28;20238;-70
2021/10/19 09:05:48;;;;;;;20.30;14.90;;;11.50;99.90;;;;;;5061911;28;20297;-71
2021/10/19 09:08:19;;;;;;;20.63;14.27;;;11.50;99.90;;;;;;5061523;28;20207;-71
2021/10/19 09:10:47;;;;;;;22.80;15.13;;;11.70;99.90;;;;;;5056131;28;20206;-69
2021/10/19 09:13:19;;;;;;;24.77;15.53;;;11.60;99.90;;;;;;5053390;28;20568;-67
2021/10/19 09:15:48;;;;;;;25.67;16.63;;;11.70;99.90;;;;;;5052405;28;20296;-67
2021/10/19 09:18:17;;;;;;;22.63;15.40;;;11.80;99.90;;;;;;5053904;28;20212;-68
2021/10/19 09:20:47;;;;;;;23.20;15.43;;;11.90;99.90;;;;;;5052137;28;20248;-68
2021/10/19 09:23:15;;;;;;;21.30;15.33;;;12.10;99.90;;;;;;5051917;28;20313;-67
2021/10/19 09:25:44;;;;;;;19.00;14.83;;;12.20;99.90;;;;;;5057434;28;20206;-72
2021/10/19 09:28:14;;;;;;;26.03;16.70;;;12.40;99.90;;;;;;5055501;28;20210;-71
2021/10/19 09:30:44;;;;;;;23.00;15.67;;;12.60;99.90;;;;;;5053038;28;20236;-71
2021/10/19 09:33:13;;;;;;;20.30;14.77;;;12.80;99.90;;;;;;5059195;28;20209;-71
2021/10/19 09:35:41;;;;;;;20.10;13.73;;;13.10;99.90;;;;;;5051912;28;20253;-71
2021/10/19 09:38:12;;;;;;;19.50;14.30;;;13.60;99.90;;;;;;5056618;28;20227;-72
2021/10/19 09:40:41;;;;;;;19.77;14.50;;;14.20;99.90;;;;;;5054799;28;20201;-71
2021/10/19 09:43:10;;;;;;;20.83;14.53;;;14.70;99.90;;;;;;5063248;28;20253;-71
2021/10/19 09:45:41;;;;;;;23.03;15.77;;;14.90;99.90;;;;;;5056284;28;20264;-72
2021/10/19 09:48:11;;;;;;;20.83;15.10;;;14.90;99.90;;;;;;5055539;28;20285;-71
2021/10/19 09:50:40;;;;;;;20.60;14.57;;;14.90;99.90;;;;;;5053503;28;20288;-71
2021/10/19 09:53:07;;;;;;;19.77;14.10;;;14.80;99.90;;;;;;5058630;28;20678;-71
2021/10/19 09:55:36;;;;;;;21.47;14.90;;;14.70;99.90;;;;;;5051760;28;20201;-71
2021/10/19 09:58:04;;;;;;;21.30;14.70;;;14.60;99.90;;;;;;5057012;28;20325;-70
2021/10/19 10:00:33;;;;;;;22.17;15.13;;;14.70;99.90;;;;;;5056833;28;20213;-70
2021/10/19 10:03:03;;;;;;;16.57;13.87;;;15.00;99.90;;;;;;5052025;28;20328;-69
2021/10/19 10:05:30;;;;;;;17.57;14.33;;;15.20;99.90;;;;;;5050642;28;20304;-72
2021/10/19 10:07:57;;;;;;;20.67;15.10;;;15.50;99.90;;;;;;5054128;28;20308;-70
2021/10/19 10:10:27;;;;;;;17.90;14.63;;;15.70;99.90;;;;;;5054315;28;20304;-70
2021/10/19 10:13:03;;;;;;;19.93;13.23;;;15.70;99.90;;;;;;5061762;28;20205;-70
2021/10/19 10:15:34;;;;;;;17.30;13.87;;;15.60;99.90;;;;;;5060700;28;20617;-70
2021/10/19 10:18:03;;;;;;;18.27;14.20;;;15.60;99.90;;;;;;5064986;28;20632;-70
2021/10/19 10:20:36;;;;;;;20.57;14.87;;;15.60;99.90;;;;;;5064213;28;20311;-71
2021/10/19 10:23:18;;;;;;;20.13;14.60;;;15.80;99.90;;;;;;5059254;28;20257;-70
2021/10/19 10:25:46;;;;;;;19.73;15.10;;;16.00;99.90;;;;;;5051134;28;20312;-70
2021/10/19 10:28:18;;;;;;;19.67;14.07;;;16.00;99.90;;;;;;5052845;28;20205;-70
2021/10/19 10:30:48;;;;;;;18.93;14.97;;;16.00;99.90;;;;;;5050001;28;20327;-69
2021/10/19 10:33:16;;;;;;;20.47;15.03;;;16.10;99.90;;;;;;5059284;28;20205;-71
2021/10/19 10:35:45;;;;;;;16.37;14.07;;;16.20;99.90;;;;;;5060810;28;20239;-70
2021/10/19 10:38:12;;;;;;;19.77;15.77;;;16.20;99.90;;;;;;5056999;28;20213;-70
2021/10/19 10:40:40;;;;;;;20.47;15.40;;;16.20;99.90;;;;;;5057433;28;20271;-70
2021/10/19 10:43:21;;;;;;;19.60;14.00;;;16.20;99.90;;;;;;5054321;28;20276;-71
2021/10/19 10:46:00;;;;;;;18.23;13.93;;;16.50;99.90;;;;;;5055610;28;20201;-71
2021/10/19 10:48:27;;;;;;;20.57;14.20;;;16.80;99.90;;;;;;5054078;28;20210;-71
2021/10/19 10:50:54;;;;;;;17.53;14.03;;;17.00;99.90;;;;;;5058376;28;20304;-72
2021/10/19 10:53:21;;;;;;;18.45;14.52;;;17.20;99.90;;;;;;5054226;28;20206;-70
2021/10/19 10:55:51;;;;;;;17.42;14.00;;;17.40;99.90;;;;;;5056992;28;20236;-69
2021/10/19 10:58:32;;;;;;;18.53;14.13;;;17.70;99.90;;;;;;5054278;28;20210;-70
2021/10/19 11:01:00;;;;;;;18.48;13.73;;;18.70;99.90;;;;;;5059794;28;20284;-69
2021/10/19 11:03:27;;;;;;;21.02;14.50;;;20.50;99.90;;;;;;5060545;28;20221;-70
2021/10/19 11:05:56;;;;;;;16.45;13.20;;;22.10;99.90;;;;;;5058718;28;20214;-70
2021/10/19 11:08:28;;;;;;;16.75;13.00;;;23.60;97.80;;;;;;5053712;28;20208;-71
2021/10/19 11:11:08;;;;;;;15.52;12.20;;;24.70;95.90;;;;;;5056413;28;20636;-70
2021/10/19 11:13:49;;;;;;;17.42;12.82;;;26.00;89.70;;;;;;5050918;28;20237;-70
2021/10/19 11:16:17;;;;;;;15.77;12.93;;;27.20;80.50;;;;;;5053961;28;20345;-71
2021/10/19 11:18:44;;;;;;;17.50;13.73;;;28.20;72.20;;;;;;5055747;28;20296;-70
2021/10/19 11:21:10;;;;;;;15.57;12.88;;;28.20;66.90;;;;;;5054768;28;20256;-69
2021/10/19 11:23:41;;;;;;;14.13;12.30;;;28.00;65.50;;;;;;5056245;28;20670;-68
2021/10/19 11:26:10;;;;;;;15.77;12.75;;;27.80;64.70;;;;;;5058952;28;20494;-68
2021/10/19 11:28:40;;;;;;;15.63;11.88;;;27.50;64.10;;;;;;5055896;28;20292;-68
2021/10/19 11:31:09;;;;;;;14.50;12.80;;;27.20;63.00;;;;;;5060393;28;20230;-67
2021/10/19 11:33:37;;;;;;;16.23;13.63;;;26.60;63.20;;;;;;5056280;28;20201;-68
2021/10/19 11:36:04;;;;;;;16.80;12.65;;;25.80;63.50;;;;;;5059621;28;20427;-69
2021/10/19 11:38:32;;;;;;;13.32;11.38;;;24.80;65.70;;;;;;5054407;28;20549;-69
2021/10/19 11:41:07;;;;;;;14.48;11.80;;;23.80;67.30;;;;;;5061273;28;20212;-68
2021/10/19 11:43:35;;;;;;;16.63;12.32;;;22.90;69.40;;;;;;5055438;28;20237;-69
2021/10/19 11:46:09;;;;;;;16.50;12.10;;;22.00;72.50;;;;;;5057722;28;20228;-68
2021/10/19 11:48:37;;;;;;;13.00;11.23;;;21.20;75.40;;;;;;5068594;28;20689;-68
2021/10/19 11:51:07;;;;;;;15.32;11.10;;;20.40;77.30;;;;;;5062208;28;20202;-69
2021/10/19 11:53:35;;;;;;;15.48;10.73;;;19.90;79.40;;;;;;5058551;28;20224;-70
2021/10/19 11:56:04;;;;;;;13.85;10.52;;;19.40;81.40;;;;;;5063851;28;20209;-68
2021/10/19 11:58:32;;;;;;;18.15;10.27;;;19.40;84.40;;;;;;5053542;28;20214;-67
2021/10/19 12:01:00;;;;;;;13.00;9.93;;;20.00;85.90;;;;;;5061809;28;20197;-70
2021/10/19 12:03:33;;;;;;;11.77;9.30;;;21.10;84.20;;;;;;5054465;28;20218;-69
2021/10/19 12:06:00;;;;;;;15.70;9.23;;;22.80;79.30;;;;;;5053494;28;20280;-69
2021/10/19 12:08:32;;;;;;;11.77;9.82;;;24.70;74.00;;;;;;5056048;28;20210;-70
2021/10/19 12:11:09;;;;;;;12.60;9.60;;;26.10;65.20;;;;;;5052310;28;20210;-67
2021/10/19 12:13:37;;;;;;;11.98;9.30;;;26.60;62.00;;;;;;5055457;28;20206;-68
2021/10/19 12:16:05;;;;;;;13.10;9.55;;;26.40;60.20;;;;;;5052895;28;20256;-69
2021/10/19 12:18:42;;;;;;;12.77;9.65;;;25.60;59.90;;;;;;5053909;28;20263;-68
2021/10/19 12:21:09;;;;;;;13.65;9.88;;;24.70;61.90;;;;;;5053787;28;20281;-68
2021/10/19 12:23:38;;;;;;;12.13;9.95;;;23.80;64.60;;;;;;5064095;28;20760;-68
2021/10/19 12:26:10;;;;;;;15.43;10.15;;;23.40;67.80;;;;;;5057604;28;20214;-68
2021/10/19 12:28:37;;;;;;;10.70;9.32;;;23.30;68.90;;;;;;5056357;28;20673;-68
2021/10/19 12:31:04;;;;;;;10.35;8.05;;;23.80;68.70;;;;;;5059172;28;20714;-67
2021/10/19 12:33:32;;;;;;;15.77;9.63;;;24.80;67.00;;;;;;5054616;28;20213;-68
2021/10/19 12:36:05;;;;;;;12.10;8.85;;;25.30;63.40;;;;;;5063524;28;20712;-69
2021/10/19 12:38:36;;;;;;;14.32;9.18;;;24.90;61.90;;;;;;5052300;28;20325;-68
2021/10/19 12:41:09;;;;;;;14.18;9.40;;;24.00;62.90;;;;;;5059117;28;20228;-68
2021/10/19 12:43:37;;;;;;;13.38;9.40;;;23.20;64.70;;;;;;5054343;28;20214;-69
2021/10/19 12:46:05;;;;;;;11.25;9.00;;;22.40;66.50;;;;;;5053134;28;20205;-68